• Join FlightAware (Why Join?)
  • Login
  • US Flag 
02:35AM EST


 

Airport Tracker/Info


-or-


 

Live Flight TrackerFlight Track Log ✈ FIN667 ✈ 24-Oct-2013 ✈ EFHK / HEL - EKCH / CPH

Flight Track Log - Related Links

Times and Time Zones

All times are in EDT time to prevent confusion due to time zone crossing. See the FIN667 flight status page for this flight to view local times or setup timezone preferences in your user account.

Time Position Orientation Groundspeed Altitude Reporting Facility
EDT Latitude Longitude Course Direction KTS MPH feet Rate Location/Type
10:50AM 60.1599 24.4284 240° Southwest  Level Estimated
10:51AM 60.1070 24.2513 239° Southwest  Level Estimated
10:52AM 60.0539 24.0747 239° Southwest  Level Estimated
10:53AM 59.9983 23.8916 239° Southwest  Level Estimated
10:54AM 59.9426 23.7092 239° Southwest  Level Estimated
10:55AM 59.8866 23.5274 239° Southwest  Level Estimated
10:56AM 59.8303 23.3462 238° Southwest  Level Estimated
10:57AM 59.7738 23.1656 238° Southwest  Level Estimated
10:58AM 59.7170 22.9856 238° Southwest  Level Estimated
10:59AM 59.6600 22.8062 238° Southwest  Level Estimated
11:00AM 59.6027 22.6274 238° Southwest  Level Estimated
11:01AM 59.5452 22.4493 238° Southwest  Level Estimated
11:02AM 59.4875 22.2717 237° Southwest  Level Estimated
11:03AM 59.4295 22.0948 237° Southwest  Level Estimated
11:04AM 59.3713 21.9185 237° Southwest  Level Estimated
11:05AM 59.3128 21.7427 237° Southwest  Level Estimated
11:06AM 59.2541 21.5676 237° Southwest  Level Estimated
11:07AM 59.1952 21.3931 237° Southwest  Level Estimated
11:08AM 59.1361 21.2192 237° Southwest  Level Estimated
11:09AM 59.0767 21.0459 236° Southwest  Level Estimated
11:10AM 59.0170 20.8731 236° Southwest  Level Estimated
11:11AM 58.9572 20.7010 236° Southwest  Level Estimated
11:12AM 58.8971 20.5295 236° Southwest  Level Estimated
11:13AM 58.8368 20.3586 236° Southwest  Level Estimated
11:14AM 58.7763 20.1882 236° Southwest  Level Estimated
11:15AM 58.7155 20.0185 235° Southwest  Level Estimated
11:16AM 58.6545 19.8494 235° Southwest  Level Estimated
11:17AM 58.5933 19.6808 235° Southwest  Level Estimated
11:18AM 58.5319 19.5129 235° Southwest  Level Estimated
11:19AM 58.4703 19.3455 235° Southwest  Level Estimated
11:20AM 58.4085 19.1787 235° Southwest  Level Estimated
11:21AM 58.3464 19.0125 235° Southwest  Level Estimated
11:22AM 58.2841 18.8469 234° Southwest  Level Estimated
11:23AM 58.2216 18.6819 234° Southwest  Level Estimated
11:24AM 58.1589 18.5174 234° Southwest  Level Estimated
11:25AM 58.0960 18.3535 234° Southwest  Level Estimated
11:26AM 58.0328 18.1902 234° Southwest  Level Estimated
11:27AM 57.9695 18.0275 234° Southwest  Level Estimated
11:28AM 57.9060 17.8654 234° Southwest  Level Estimated
11:29AM 57.8422 17.7038 233° Southwest  Level Estimated
11:30AM 57.7783 17.5428 233° Southwest  Level Estimated
11:31AM 57.7141 17.3824 233° Southwest  Level Estimated
11:32AM 57.6497 17.2225 233° Southwest  Level Estimated
11:33AM 57.5852 17.0632 233° Southwest  Level Estimated
11:34AM 57.5204 16.9045 233° Southwest  Level Estimated
11:35AM 57.4555 16.7463 233° Southwest  Level Estimated
11:36AM 57.3903 16.5887 233° Southwest  Level Estimated
11:37AM 57.3250 16.4317 232° Southwest  Level Estimated
11:38AM 57.2594 16.2752 232° Southwest  Level Estimated
11:39AM 57.1937 16.1193 232° Southwest  Level Estimated
11:40AM 57.1277 15.9639 232° Southwest  Level Estimated
11:41AM 57.0616 15.8091 232° Southwest  Level Estimated
11:42AM 56.9953 15.6548 232° Southwest  Level Estimated
11:43AM 56.9288 15.5011 232° Southwest  Level Estimated
11:44AM 56.8621 15.3479 232° Southwest  Level Estimated
11:45AM 56.7952 15.1953 231° Southwest  Level Estimated
11:46AM 56.7282 15.0432 231° Southwest  Level Estimated
11:47AM 56.6609 14.8917 231° Southwest  Level Estimated
11:48AM 56.5935 14.7407 231° Southwest  Level Estimated
11:49AM 56.5259 14.5902 231° Southwest  Level Estimated
11:50AM 56.4581 14.4403 231° Southwest  Level Estimated
11:51AM 56.3901 14.2909 231° Southwest  Level Estimated
11:52AM 56.3220 14.1421 230° Southwest  Level Estimated
11:53AM 56.2537 13.9937 230° Southwest  Level Estimated
11:54AM 56.1851 13.8460 230° Southwest  Level Estimated
11:55AM 56.1165 13.6987 230° Southwest  Level Estimated
11:56AM 56.0476 13.5519 230° Southwest  Level Estimated
11:57AM 55.9786 13.4057 230° Southwest  Level Estimated
11:58AM 55.9094 13.2600 230° Southwest  Level Estimated
11:59AM 55.8400 13.1149 230° Southwest  Level Estimated
12:00PM 55.7704 12.9702 230° Southwest  Level Estimated
12:01PM 55.7007 12.8261 229° Southwest  Level Estimated
12:02PM 55.6308 12.6824 229° Southwest  Level Estimated
12:03PM 55.6179 12.6560 229° Southwest  Level Estimated
12:04PM 55.6179 12.6560 159° South  Level Estimated
12:05PM 55.6179 12.6560 159° South  Level Estimated
12:06PM 55.6179 12.6560 159° South  Level Estimated
12:07PM 55.6179 12.6560 159° South  Level Estimated
12:08PM 55.6179 12.6560 159° South  Level Estimated
12:09PM 55.6179 12.6560 159° South  Level Estimated
12:10PM 55.6179 12.6560 159° South  Level Estimated
12:11PM 55.6179 12.6560 159° South  Level Estimated
12:12PM 55.6179 12.6560 159° South  Level Estimated
12:13PM 55.6179 12.6560 159° South  Level Estimated
12:14PM 55.6179 12.6560 159° South  Level Estimated
12:15PM 55.6179 12.6560 159° South  Level Estimated
12:16PM 55.6179 12.6560 159° South  Level Estimated
12:17PM 55.6179 12.6560 159° South  Level Estimated
12:18PM 55.6179 12.6560 159° South  Level Estimated